sensor_id;sensor_type;location;lat;lon;timestamp;pressure;altitude;pressure_sealevel;temperature;humidity
74680;BME280;63211;48.548;2.704;2023-08-01T00:00:39;99719.38;;;21.46;66.06
74680;BME280;63211;48.548;2.704;2023-08-01T00:03:07;99728.16;;;21.48;65.78
74680;BME280;63211;48.548;2.704;2023-08-01T00:05:34;99726.78;;;21.45;65.87
74680;BME280;63211;48.548;2.704;2023-08-01T00:08:01;99719.94;;;21.48;65.78
74680;BME280;63211;48.548;2.704;2023-08-01T00:10:28;99713.94;;;21.51;65.83
74680;BME280;63211;48.548;2.704;2023-08-01T00:12:55;99717.50;;;21.51;65.80
74680;BME280;63211;48.548;2.704;2023-08-01T00:15:21;99723.25;;;21.50;65.67
74680;BME280;63211;48.548;2.704;2023-08-01T00:17:48;99715.31;;;21.53;66.49
74680;BME280;63211;48.548;2.704;2023-08-01T00:20:16;99710.66;;;21.54;66.04
74680;BME280;63211;48.548;2.704;2023-08-01T00:22:42;99708.16;;;21.47;66.50
74680;BME280;63211;48.548;2.704;2023-08-01T00:25:09;99710.94;;;21.52;66.02
74680;BME280;63211;48.548;2.704;2023-08-01T00:27:36;99697.78;;;21.49;65.88
74680;BME280;63211;48.548;2.704;2023-08-01T00:30:03;99689.56;;;21.49;65.95
74680;BME280;63211;48.548;2.704;2023-08-01T00:32:30;99697.50;;;21.51;66.24
74680;BME280;63211;48.548;2.704;2023-08-01T00:34:57;99692.28;;;21.49;66.16
74680;BME280;63211;48.548;2.704;2023-08-01T00:37:25;99687.34;;;21.46;66.12
74680;BME280;63211;48.548;2.704;2023-08-01T00:39:51;99696.94;;;21.49;66.18
74680;BME280;63211;48.548;2.704;2023-08-01T00:42:18;99690.38;;;21.50;66.10
74680;BME280;63211;48.548;2.704;2023-08-01T00:44:44;99685.72;;;21.50;66.01
74680;BME280;63211;48.548;2.704;2023-08-01T00:47:13;99682.41;;;21.43;65.59
74680;BME280;63211;48.548;2.704;2023-08-01T00:49:40;99677.50;;;21.40;65.84
74680;BME280;63211;48.548;2.704;2023-08-01T00:52:07;99679.97;;;21.47;66.11
74680;BME280;63211;48.548;2.704;2023-08-01T00:54:35;99664.06;;;21.44;65.91
74680;BME280;63211;48.548;2.704;2023-08-01T00:57:02;99684.63;;;21.46;65.83
74680;BME280;63211;48.548;2.704;2023-08-01T00:59:29;99673.09;;;21.44;65.62
74680;BME280;63211;48.548;2.704;2023-08-01T01:01:57;99677.22;;;21.47;66.02
74680;BME280;63211;48.548;2.704;2023-08-01T01:04:24;99668.75;;;21.48;65.95
74680;BME280;63211;48.548;2.704;2023-08-01T01:06:57;99669.28;;;21.50;66.22
74680;BME280;63211;48.548;2.704;2023-08-01T01:09:24;99671.47;;;21.48;65.87
74680;BME280;63211;48.548;2.704;2023-08-01T01:11:55;99658.84;;;21.42;66.02
74680;BME280;63211;48.548;2.704;2023-08-01T01:14:22;99678.03;;;21.47;66.20
74680;BME280;63211;48.548;2.704;2023-08-01T01:16:48;99657.22;;;21.46;66.24
74680;BME280;63211;48.548;2.704;2023-08-01T01:19:17;99654.47;;;21.41;66.03
74680;BME280;63211;48.548;2.704;2023-08-01T01:21:46;99658.06;;;21.47;65.90
74680;BME280;63211;48.548;2.704;2023-08-01T01:24:14;99658.03;;;21.42;65.99
74680;BME280;63211;48.548;2.704;2023-08-01T01:26:42;99650.66;;;21.42;66.33
74680;BME280;63211;48.548;2.704;2023-08-01T01:29:10;99654.75;;;21.45;65.97
74680;BME280;63211;48.548;2.704;2023-08-01T01:31:37;99642.97;;;21.44;65.66
74680;BME280;63211;48.548;2.704;2023-08-01T01:34:04;99643.25;;;21.48;65.85
74680;BME280;63211;48.548;2.704;2023-08-01T01:36:31;99645.44;;;21.46;66.18
74680;BME280;63211;48.548;2.704;2023-08-01T01:38:59;99650.66;;;21.47;65.73
74680;BME280;63211;48.548;2.704;2023-08-01T01:41:26;99641.88;;;21.45;65.97
74680;BME280;63211;48.548;2.704;2023-08-01T01:43:52;99641.88;;;21.45;65.74
74680;BME280;63211;48.548;2.704;2023-08-01T01:46:19;99642.44;;;21.47;66.01
74680;BME280;63211;48.548;2.704;2023-08-01T01:48:45;99634.78;;;21.44;65.76
74680;BME280;63211;48.548;2.704;2023-08-01T01:51:13;99642.72;;;21.46;65.89
74680;BME280;63211;48.548;2.704;2023-08-01T01:53:39;99635.31;;;21.46;65.53
74680;BME280;63211;48.548;2.704;2023-08-01T01:56:07;99628.75;;;21.47;65.59
74680;BME280;63211;48.548;2.704;2023-08-01T01:58:34;99629.03;;;21.46;65.87
74680;BME280;63211;48.548;2.704;2023-08-01T02:01:00;99615.06;;;21.37;65.62
74680;BME280;63211;48.548;2.704;2023-08-01T02:03:27;99629.03;;;21.46;65.92
74680;BME280;63211;48.548;2.704;2023-08-01T02:05:54;99611.78;;;21.35;65.67
74680;BME280;63211;48.548;2.704;2023-08-01T02:08:20;99617.25;;;21.45;65.85
74680;BME280;63211;48.548;2.704;2023-08-01T02:10:47;99622.16;;;21.43;66.00
74680;BME280;63211;48.548;2.704;2023-08-01T02:13:15;99626.28;;;21.41;65.89
74680;BME280;63211;48.548;2.704;2023-08-01T02:15:42;99610.94;;;21.35;65.83
74680;BME280;63211;48.548;2.704;2023-08-01T02:18:09;99618.59;;;21.43;65.79
74680;BME280;63211;48.548;2.704;2023-08-01T02:20:36;99615.88;;;21.43;65.51
74680;BME280;63211;48.548;2.704;2023-08-01T02:23:03;99614.50;;;21.45;65.33
74680;BME280;63211;48.548;2.704;2023-08-01T02:25:29;99617.25;;;21.45;65.41
74680;BME280;63211;48.548;2.704;2023-08-01T02:27:56;99617.78;;;21.42;65.73
74680;BME280;63211;48.548;2.704;2023-08-01T02:30:24;99604.91;;;21.43;65.22
74680;BME280;63211;48.548;2.704;2023-08-01T02:32:51;99600.53;;;21.42;65.18
74680;BME280;63211;48.548;2.704;2023-08-01T02:35:17;99607.38;;;21.44;65.19
74680;BME280;63211;48.548;2.704;2023-08-01T02:37:44;99608.47;;;21.43;65.46
74680;BME280;63211;48.548;2.704;2023-08-01T02:40:11;99617.50;;;21.44;65.58
74680;BME280;63211;48.548;2.704;2023-08-01T02:42:38;99613.13;;;21.43;65.31
74680;BME280;63211;48.548;2.704;2023-08-01T02:45:05;99619.97;;;21.45;65.17
74680;BME280;63211;48.548;2.704;2023-08-01T02:47:33;99609.03;;;21.40;65.62
74680;BME280;63211;48.548;2.704;2023-08-01T02:50:00;99608.22;;;21.40;65.92
74680;BME280;63211;48.548;2.704;2023-08-01T02:52:26;99617.78;;;21.42;65.53
74680;BME280;63211;48.548;2.704;2023-08-01T02:54:54;99613.94;;;21.43;65.52
74680;BME280;63211;48.548;2.704;2023-08-01T02:57:20;99620.25;;;21.44;65.35
74680;BME280;63211;48.548;2.704;2023-08-01T02:59:47;99618.34;;;21.44;65.48
74680;BME280;63211;48.548;2.704;2023-08-01T03:02:13;99629.56;;;21.43;65.42
74680;BME280;63211;48.548;2.704;2023-08-01T03:04:41;99626.00;;;21.37;65.55
74680;BME280;63211;48.548;2.704;2023-08-01T03:07:08;99645.72;;;21.44;65.48
74680;BME280;63211;48.548;2.704;2023-08-01T03:09:34;99655.84;;;21.44;65.77
74680;BME280;63211;48.548;2.704;2023-08-01T03:12:01;99637.75;;;21.27;65.37
74680;BME280;63211;48.548;2.704;2023-08-01T03:14:28;99678.31;;;21.46;65.78
74680;BME280;63211;48.548;2.704;2023-08-01T03:16:54;99666.81;;;21.39;65.55
74680;BME280;63211;48.548;2.704;2023-08-01T03:19:21;99674.75;;;21.45;65.34
74680;BME280;63211;48.548;2.704;2023-08-01T03:21:50;99676.94;;;21.43;65.78
74680;BME280;63211;48.548;2.704;2023-08-01T03:24:17;99682.69;;;21.47;65.34
74680;BME280;63211;48.548;2.704;2023-08-01T03:26:43;99665.44;;;21.36;65.68
74680;BME280;63211;48.548;2.704;2023-08-01T03:29:10;99687.34;;;21.46;65.64
74680;BME280;63211;48.548;2.704;2023-08-01T03:31:37;99683.78;;;21.46;65.58
74680;BME280;63211;48.548;2.704;2023-08-01T03:34:03;99686.53;;;21.46;65.35
74680;BME280;63211;48.548;2.704;2023-08-01T03:36:34;99681.59;;;21.43;65.66
74680;BME280;63211;48.548;2.704;2023-08-01T03:39:02;99689.53;;;21.44;65.66
74680;BME280;63211;48.548;2.704;2023-08-01T03:41:29;99698.31;;;21.46;65.46
74680;BME280;63211;48.548;2.704;2023-08-01T03:43:55;99701.88;;;21.47;65.60
74680;BME280;63211;48.548;2.704;2023-08-01T03:46:22;99702.97;;;21.46;65.59
74680;BME280;63211;48.548;2.704;2023-08-01T03:48:48;99711.19;;;21.46;65.50
74680;BME280;63211;48.548;2.704;2023-08-01T03:51:15;99712.00;;;21.46;65.89
74680;BME280;63211;48.548;2.704;2023-08-01T03:53:43;99702.41;;;21.44;65.65
74680;BME280;63211;48.548;2.704;2023-08-01T03:56:12;99707.88;;;21.44;65.45
74680;BME280;63211;48.548;2.704;2023-08-01T03:58:38;99703.75;;;21.41;65.17
74680;BME280;63211;48.548;2.704;2023-08-01T04:01:05;99722.09;;;21.41;65.60
74680;BME280;63211;48.548;2.704;2023-08-01T04:03:32;99725.97;;;21.45;65.51
74680;BME280;63211;48.548;2.704;2023-08-01T04:05:58;99732.00;;;21.47;65.38
74680;BME280;63211;48.548;2.704;2023-08-01T04:08:25;99728.97;;;21.43;65.36
74680;BME280;63211;48.548;2.704;2023-08-01T04:10:51;99727.88;;;21.44;65.73
74680;BME280;63211;48.548;2.704;2023-08-01T04:13:19;99731.69;;;21.43;66.01
74680;BME280;63211;48.548;2.704;2023-08-01T04:15:46;99736.66;;;21.46;65.70
74680;BME280;63211;48.548;2.704;2023-08-01T04:18:13;99730.06;;;21.37;65.49
74680;BME280;63211;48.548;2.704;2023-08-01T04:20:39;99741.00;;;21.42;65.76
74680;BME280;63211;48.548;2.704;2023-08-01T04:23:06;99748.44;;;21.47;65.52
74680;BME280;63211;48.548;2.704;2023-08-01T04:25:32;99742.13;;;21.46;65.69
74680;BME280;63211;48.548;2.704;2023-08-01T04:27:59;99751.69;;;21.44;65.51
74680;BME280;63211;48.548;2.704;2023-08-01T04:30:27;99754.97;;;21.41;65.54
74680;BME280;63211;48.548;2.704;2023-08-01T04:32:53;99762.38;;;21.45;65.43
74680;BME280;63211;48.548;2.704;2023-08-01T04:35:20;99756.91;;;21.45;65.82
74680;BME280;63211;48.548;2.704;2023-08-01T04:37:47;99764.28;;;21.45;65.64
74680;BME280;63211;48.548;2.704;2023-08-01T04:40:13;99770.03;;;21.43;65.68
74680;BME280;63211;48.548;2.704;2023-08-01T04:42:40;99762.38;;;21.45;65.87
74680;BME280;63211;48.548;2.704;2023-08-01T04:45:07;99765.94;;;21.46;65.41
74680;BME280;63211;48.548;2.704;2023-08-01T04:47:35;99764.28;;;21.45;65.54
74680;BME280;63211;48.548;2.704;2023-08-01T04:50:02;99752.78;;;21.38;65.70
74680;BME280;63211;48.548;2.704;2023-08-01T04:52:29;99760.47;;;21.46;65.72
74680;BME280;63211;48.548;2.704;2023-08-01T04:54:55;99753.06;;;21.41;65.80
74680;BME280;63211;48.548;2.704;2023-08-01T04:57:22;99758.00;;;21.44;65.53
74680;BME280;63211;48.548;2.704;2023-08-01T04:59:48;99753.88;;;21.42;65.68
74680;BME280;63211;48.548;2.704;2023-08-01T05:02:15;99763.47;;;21.44;65.76
74680;BME280;63211;48.548;2.704;2023-08-01T05:04:43;99765.13;;;21.45;65.62
74680;BME280;63211;48.548;2.704;2023-08-01T05:07:09;99758.25;;;21.43;65.57
74680;BME280;63211;48.548;2.704;2023-08-01T05:09:36;99769.78;;;21.45;65.60
74680;BME280;63211;48.548;2.704;2023-08-01T05:12:03;99766.22;;;21.44;65.72
74680;BME280;63211;48.548;2.704;2023-08-01T05:14:30;99770.88;;;21.44;65.76
74680;BME280;63211;48.548;2.704;2023-08-01T05:16:56;99771.97;;;21.43;65.86
74680;BME280;63211;48.548;2.704;2023-08-01T05:19:23;99784.00;;;21.42;65.57
74680;BME280;63211;48.548;2.704;2023-08-01T05:21:51;99779.09;;;21.44;65.74
74680;BME280;63211;48.548;2.704;2023-08-01T05:24:17;99766.75;;;21.36;65.74
74680;BME280;63211;48.548;2.704;2023-08-01T05:26:44;99778.25;;;21.43;65.99
74680;BME280;63211;48.548;2.704;2023-08-01T05:29:10;99785.38;;;21.44;66.07
74680;BME280;63211;48.548;2.704;2023-08-01T05:31:37;99779.63;;;21.41;66.03
74680;BME280;63211;48.548;2.704;2023-08-01T05:34:04;99790.34;;;21.47;66.11
74680;BME280;63211;48.548;2.704;2023-08-01T05:36:30;99790.84;;;21.44;66.22
74680;BME280;63211;48.548;2.704;2023-08-01T05:38:58;99805.66;;;21.48;66.06
74680;BME280;63211;48.548;2.704;2023-08-01T05:41:25;99806.19;;;21.45;66.25
74680;BME280;63211;48.548;2.704;2023-08-01T05:43:51;99814.97;;;21.47;66.49
74680;BME280;63211;48.548;2.704;2023-08-01T05:46:18;99829.00;;;21.56;66.62
74680;BME280;63211;48.548;2.704;2023-08-01T05:48:45;99828.72;;;21.57;67.84
74680;BME280;63211;48.548;2.704;2023-08-01T05:51:11;99826.53;;;21.54;67.40
74680;BME280;63211;48.548;2.704;2023-08-01T05:53:38;99821.34;;;21.58;67.91
74680;BME280;63211;48.548;2.704;2023-08-01T05:56:06;99822.69;;;21.55;67.48
74680;BME280;63211;48.548;2.704;2023-08-01T05:58:32;99831.47;;;21.57;67.75
74680;BME280;63211;48.548;2.704;2023-08-01T06:00:59;99834.22;;;21.57;67.58
74680;BME280;63211;48.548;2.704;2023-08-01T06:03:26;99830.09;;;21.55;67.68
74680;BME280;63211;48.548;2.704;2023-08-01T06:05:52;99830.91;;;21.55;67.75
74680;BME280;63211;48.548;2.704;2023-08-01T06:08:19;99832.28;;;21.58;67.32
74680;BME280;63211;48.548;2.704;2023-08-01T06:10:46;99837.78;;;21.58;67.54
74680;BME280;63211;48.548;2.704;2023-08-01T06:13:14;99838.59;;;21.58;67.45
74680;BME280;63211;48.548;2.704;2023-08-01T06:15:41;99844.59;;;21.55;67.62
74680;BME280;63211;48.548;2.704;2023-08-01T06:18:08;99841.31;;;21.53;67.66
74680;BME280;63211;48.548;2.704;2023-08-01T06:20:36;99854.75;;;21.60;67.72
74680;BME280;63211;48.548;2.704;2023-08-01T06:23:02;99858.31;;;21.60;67.51
74680;BME280;63211;48.548;2.704;2023-08-01T06:25:29;99855.81;;;21.54;67.44
74680;BME280;63211;48.548;2.704;2023-08-01T06:27:55;99870.63;;;21.63;67.73
74680;BME280;63211;48.548;2.704;2023-08-01T06:30:23;99875.03;;;21.64;67.31
74680;BME280;63211;48.548;2.704;2023-08-01T06:32:50;99873.94;;;21.65;67.35
74680;BME280;63211;48.548;2.704;2023-08-01T06:35:16;99866.50;;;21.55;67.47
74680;BME280;63211;48.548;2.704;2023-08-01T06:37:43;99894.19;;;21.64;67.06
74680;BME280;63211;48.548;2.704;2023-08-01T06:40:10;99890.38;;;21.65;67.25
74680;BME280;63211;48.548;2.704;2023-08-01T06:42:37;99885.72;;;21.66;67.02
74680;BME280;63211;48.548;2.704;2023-08-01T06:45:04;99889.56;;;21.65;67.36
74680;BME280;63211;48.548;2.704;2023-08-01T06:47:32;99892.84;;;21.67;67.56
74680;BME280;63211;48.548;2.704;2023-08-01T06:49:58;99902.97;;;21.66;67.09
74680;BME280;63211;48.548;2.704;2023-08-01T06:52:25;99890.91;;;21.62;67.41
74680;BME280;63211;48.548;2.704;2023-08-01T06:54:52;99904.38;;;21.69;67.67
74680;BME280;63211;48.548;2.704;2023-08-01T06:57:18;99907.09;;;21.69;67.74
74680;BME280;63211;48.548;2.704;2023-08-01T06:59:45;99904.38;;;21.69;67.63
74680;BME280;63211;48.548;2.704;2023-08-01T07:02:11;99907.09;;;21.69;68.01
74680;BME280;63211;48.548;2.704;2023-08-01T07:04:39;99914.25;;;21.70;67.81
74680;BME280;63211;48.548;2.704;2023-08-01T07:07:06;99908.19;;;21.68;68.23
74680;BME280;63211;48.548;2.704;2023-08-01T07:09:34;99910.41;;;21.71;68.09
74680;BME280;63211;48.548;2.704;2023-08-01T07:12:00;99904.63;;;21.67;67.76
74680;BME280;63211;48.548;2.704;2023-08-01T07:14:27;99913.19;;;21.76;68.51
74680;BME280;63211;48.548;2.704;2023-08-01T07:16:53;99913.19;;;21.76;68.47
74680;BME280;63211;48.548;2.704;2023-08-01T07:19:20;99906.63;;;21.77;68.37
74680;BME280;63211;48.548;2.704;2023-08-01T07:21:48;99915.41;;;21.79;68.32
74680;BME280;63211;48.548;2.704;2023-08-01T07:24:15;99908.81;;;21.80;68.43
74680;BME280;63211;48.548;2.704;2023-08-01T07:26:41;99910.19;;;21.77;68.66
74680;BME280;63211;48.548;2.704;2023-08-01T07:29:08;99917.59;;;21.82;68.28
74680;BME280;63211;48.548;2.704;2023-08-01T07:31:36;99920.59;;;21.85;68.41
74680;BME280;63211;48.548;2.704;2023-08-01T07:34:03;99925.28;;;21.90;68.27
74680;BME280;63211;48.548;2.704;2023-08-01T07:36:29;99914.88;;;21.92;68.75
74680;BME280;63211;48.548;2.704;2023-08-01T07:38:57;99925.03;;;21.91;68.73
74680;BME280;63211;48.548;2.704;2023-08-01T07:41:24;99931.03;;;21.88;68.10
74680;BME280;63211;48.548;2.704;2023-08-01T07:43:50;99934.94;;;21.98;67.78
74680;BME280;63211;48.548;2.704;2023-08-01T07:46:17;99902.28;;;21.91;68.55
74680;BME280;63211;48.548;2.704;2023-08-01T07:48:44;99924.34;;;22.21;68.60
74680;BME280;63211;48.548;2.704;2023-08-01T07:51:10;99916.97;;;22.32;68.84
74680;BME280;63211;48.548;2.704;2023-08-01T07:53:37;99924.38;;;22.37;65.42
74680;BME280;63211;48.548;2.704;2023-08-01T07:56:05;99921.34;;;22.28;62.67
74680;BME280;63211;48.548;2.704;2023-08-01T07:58:34;99930.91;;;22.25;62.58
74680;BME280;63211;48.548;2.704;2023-08-01T08:01:03;99875.97;;;21.90;62.29
74680;BME280;63211;48.548;2.704;2023-08-01T08:03:29;99925.16;;;22.27;61.35
74680;BME280;63211;48.548;2.704;2023-08-01T08:05:56;99925.47;;;22.31;62.57
74680;BME280;63211;48.548;2.704;2023-08-01T08:08:22;99931.22;;;22.34;62.75
74680;BME280;63211;48.548;2.704;2023-08-01T08:10:49;99932.06;;;22.35;63.01
74680;BME280;63211;48.548;2.704;2023-08-01T08:13:17;99944.69;;;22.36;62.51
74680;BME280;63211;48.548;2.704;2023-08-01T08:15:44;99936.44;;;22.36;62.31
74680;BME280;63211;48.548;2.704;2023-08-01T08:18:10;99943.03;;;22.35;62.18
74680;BME280;63211;48.548;2.704;2023-08-01T08:20:41;99934.25;;;22.38;62.06
74680;BME280;63211;48.548;2.704;2023-08-01T08:23:08;99942.78;;;22.41;61.41
74680;BME280;63211;48.548;2.704;2023-08-01T08:25:35;99939.78;;;22.43;61.45
74680;BME280;63211;48.548;2.704;2023-08-01T08:28:02;99930.44;;;22.44;62.10
74680;BME280;63211;48.548;2.704;2023-08-01T08:30:30;99922.47;;;22.37;61.62
74680;BME280;63211;48.548;2.704;2023-08-01T08:32:57;99948.56;;;22.55;61.52
74680;BME280;63211;48.548;2.704;2023-08-01T08:35:25;99935.13;;;22.53;61.40
74680;BME280;63211;48.548;2.704;2023-08-01T08:37:52;99960.63;;;22.54;61.91
74680;BME280;63211;48.548;2.704;2023-08-01T08:40:19;99958.41;;;22.51;60.62
74680;BME280;63211;48.548;2.704;2023-08-01T08:42:46;99952.09;;;22.40;60.56
74680;BME280;63211;48.548;2.704;2023-08-01T08:45:17;99947.44;;;22.41;61.10
74680;BME280;63211;48.548;2.704;2023-08-01T08:47:50;99964.72;;;22.51;60.69
74680;BME280;63211;48.548;2.704;2023-08-01T08:50:20;99964.44;;;22.48;62.27
74680;BME280;63211;48.548;2.704;2023-08-01T08:52:47;99959.78;;;22.48;60.39
74680;BME280;63211;48.548;2.704;2023-08-01T08:55:14;99959.78;;;22.48;61.53
74680;BME280;63211;48.548;2.704;2023-08-01T08:57:41;99954.03;;;22.40;60.78
74680;BME280;63211;48.548;2.704;2023-08-01T09:00:11;99952.63;;;22.37;60.04
74680;BME280;63211;48.548;2.704;2023-08-01T09:02:37;99961.97;;;22.36;59.53
74680;BME280;63211;48.548;2.704;2023-08-01T09:05:06;99943.00;;;22.29;60.64
74680;BME280;63211;48.548;2.704;2023-08-01T09:07:33;99958.09;;;22.32;59.81
74680;BME280;63211;48.548;2.704;2023-08-01T09:10:03;99944.09;;;22.28;59.91
74680;BME280;63211;48.548;2.704;2023-08-01T09:12:33;99952.38;;;22.39;60.01
74680;BME280;63211;48.548;2.704;2023-08-01T09:15:00;99952.91;;;22.36;60.57
74680;BME280;63211;48.548;2.704;2023-08-01T09:17:27;99956.50;;;22.41;60.60
74680;BME280;63211;48.548;2.704;2023-08-01T09:19:55;99952.09;;;22.40;60.67
74680;BME280;63211;48.548;2.704;2023-08-01T09:22:24;99960.31;;;22.45;60.77
74680;BME280;63211;48.548;2.704;2023-08-01T09:24:51;99956.75;;;22.45;60.66
74680;BME280;63211;48.548;2.704;2023-08-01T09:27:20;99969.66;;;22.49;60.94
74680;BME280;63211;48.548;2.704;2023-08-01T09:29:47;99966.09;;;22.49;60.98
74680;BME280;63211;48.548;2.704;2023-08-01T09:32:14;99965.53;;;22.47;61.90
74680;BME280;63211;48.548;2.704;2023-08-01T09:34:41;99972.94;;;22.46;61.33
74680;BME280;63211;48.548;2.704;2023-08-01T09:37:08;99970.47;;;22.45;61.82
74680;BME280;63211;48.548;2.704;2023-08-01T09:39:36;99957.31;;;22.42;61.39
74680;BME280;63211;48.548;2.704;2023-08-01T09:42:03;99966.09;;;22.49;60.18
74680;BME280;63211;48.548;2.704;2023-08-01T09:44:30;99971.84;;;22.47;60.75
74680;BME280;63211;48.548;2.704;2023-08-01T09:46:58;99974.34;;;22.44;60.99
74680;BME280;63211;48.548;2.704;2023-08-01T09:49:26;99982.81;;;22.42;61.12
74680;BME280;63211;48.548;2.704;2023-08-01T09:51:53;99991.84;;;22.38;58.71
74680;BME280;63211;48.548;2.704;2023-08-01T09:54:20;99984.47;;;22.38;60.56
74680;BME280;63211;48.548;2.704;2023-08-01T09:56:50;99984.72;;;22.37;59.48
74680;BME280;63211;48.548;2.704;2023-08-01T09:59:19;99978.41;;;22.36;59.17
74680;BME280;63211;48.548;2.704;2023-08-01T10:01:48;99973.47;;;22.33;60.17
74680;BME280;63211;48.548;2.704;2023-08-01T10:04:19;99977.28;;;22.27;59.74
74680;BME280;63211;48.548;2.704;2023-08-01T10:06:49;99988.81;;;22.34;58.00
74680;BME280;63211;48.548;2.704;2023-08-01T10:09:21;99981.97;;;22.32;59.21
74680;BME280;63211;48.548;2.704;2023-08-01T10:11:50;99985.25;;;22.34;60.03
74680;BME280;63211;48.548;2.704;2023-08-01T10:14:19;99982.50;;;22.34;60.08
74680;BME280;63211;48.548;2.704;2023-08-01T10:16:46;99986.91;;;22.35;59.20
74680;BME280;63211;48.548;2.704;2023-08-01T10:19:13;99983.34;;;22.34;60.46
74680;BME280;63211;48.548;2.704;2023-08-01T10:21:41;99973.16;;;22.29;59.92
74680;BME280;63211;48.548;2.704;2023-08-01T10:24:08;99988.00;;;22.34;59.43
74680;BME280;63211;48.548;2.704;2023-08-01T10:26:34;99987.44;;;22.32;59.14
74680;BME280;63211;48.548;2.704;2023-08-01T10:29:02;99987.19;;;22.33;59.25
74680;BME280;63211;48.548;2.704;2023-08-01T10:31:29;99994.56;;;22.33;59.15
74680;BME280;63211;48.548;2.704;2023-08-01T10:34:04;99991.00;;;22.32;59.62
74680;BME280;63211;48.548;2.704;2023-08-01T10:36:31;99983.59;;;22.33;58.58
74680;BME280;63211;48.548;2.704;2023-08-01T10:38:59;99983.06;;;22.36;59.15
74680;BME280;63211;48.548;2.704;2023-08-01T10:41:28;99966.84;;;22.29;58.84
74680;BME280;63211;48.548;2.704;2023-08-01T10:44:06;99978.94;;;22.33;60.56
74680;BME280;63211;48.548;2.704;2023-08-01T10:46:46;99975.94;;;22.35;61.30
74680;BME280;63211;48.548;2.704;2023-08-01T10:49:13;99996.22;;;22.34;61.41
74680;BME280;63211;48.548;2.704;2023-08-01T10:51:40;99992.09;;;22.31;60.46
74680;BME280;63211;48.548;2.704;2023-08-01T10:54:06;99978.09;;;22.27;58.09
74680;BME280;63211;48.548;2.704;2023-08-01T10:56:35;99978.09;;;22.27;58.44
74680;BME280;63211;48.548;2.704;2023-08-01T10:59:06;99978.38;;;22.21;59.30
74680;BME280;63211;48.548;2.704;2023-08-01T11:01:43;99986.31;;;22.22;59.55
74680;BME280;63211;48.548;2.704;2023-08-01T11:04:13;99990.97;;;22.27;58.51
74680;BME280;63211;48.548;2.704;2023-08-01T11:06:44;100004.97;;;22.25;58.52
74680;BME280;63211;48.548;2.704;2023-08-01T11:09:15;99989.06;;;22.27;60.16
74680;BME280;63211;48.548;2.704;2023-08-01T11:11:42;99988.25;;;22.27;58.47
74680;BME280;63211;48.548;2.704;2023-08-01T11:14:11;99980.53;;;22.24;58.61
74680;BME280;63211;48.548;2.704;2023-08-01T11:16:38;99981.09;;;22.26;59.62
74680;BME280;63211;48.548;2.704;2023-08-01T11:19:04;99996.47;;;22.27;59.69
74680;BME280;63211;48.548;2.704;2023-08-01T11:21:31;99961.56;;;22.07;60.93
74680;BME280;63211;48.548;2.704;2023-08-01T11:24:05;100006.63;;;22.32;61.22
74680;BME280;63211;48.548;2.704;2023-08-01T11:26:33;100006.63;;;22.32;61.64
74680;BME280;63211;48.548;2.704;2023-08-01T11:29:01;99998.69;;;22.30;61.55
74680;BME280;63211;48.548;2.704;2023-08-01T11:31:29;99992.09;;;22.31;61.97
74680;BME280;63211;48.548;2.704;2023-08-01T11:33:57;100007.47;;;22.32;62.16
74680;BME280;63211;48.548;2.704;2023-08-01T11:36:25;100001.69;;;22.28;62.01
74680;BME280;63211;48.548;2.704;2023-08-01T11:38:52;100006.91;;;22.30;62.46
74680;BME280;63211;48.548;2.704;2023-08-01T11:41:19;100005.25;;;22.29;62.10
74680;BME280;63211;48.548;2.704;2023-08-01T11:43:45;100003.06;;;22.31;62.41
74680;BME280;63211;48.548;2.704;2023-08-01T11:46:12;99999.75;;;22.19;62.24
74680;BME280;63211;48.548;2.704;2023-08-01T11:48:44;100003.34;;;22.29;61.12
74680;BME280;63211;48.548;2.704;2023-08-01T11:51:12;99998.13;;;22.28;62.50
74680;BME280;63211;48.548;2.704;2023-08-01T11:53:38;99986.59;;;22.26;62.40
74680;BME280;63211;48.548;2.704;2023-08-01T11:56:05;100005.25;;;22.29;62.97
74680;BME280;63211;48.548;2.704;2023-08-01T11:58:34;99992.34;;;22.24;62.92
74680;BME280;63211;48.548;2.704;2023-08-01T12:01:04;99996.72;;;22.25;62.49
74680;BME280;63211;48.548;2.704;2023-08-01T12:03:31;99997.34;;;22.38;61.38
74680;BME280;63211;48.548;2.704;2023-08-01T12:06:04;99990.22;;;22.47;61.81
74680;BME280;63211;48.548;2.704;2023-08-01T12:08:33;99997.91;;;22.50;61.34
74680;BME280;63211;48.548;2.704;2023-08-01T12:11:00;99994.63;;;22.53;60.78
74680;BME280;63211;48.548;2.704;2023-08-01T12:13:27;99991.66;;;22.59;60.92
74680;BME280;63211;48.548;2.704;2023-08-01T12:15:55;99984.78;;;22.57;60.14
74680;BME280;63211;48.548;2.704;2023-08-01T12:18:22;99964.44;;;22.48;60.03
74680;BME280;63211;48.548;2.704;2023-08-01T12:20:49;99977.94;;;22.65;59.72
74680;BME280;63211;48.548;2.704;2023-08-01T12:23:17;99985.06;;;22.71;59.65
74680;BME280;63211;48.548;2.704;2023-08-01T12:25:44;99991.94;;;22.73;59.62
74680;BME280;63211;48.548;2.704;2023-08-01T12:28:10;99982.94;;;22.78;59.38
74680;BME280;63211;48.548;2.704;2023-08-01T12:30:39;99973.00;;;22.77;59.17
74680;BME280;63211;48.548;2.704;2023-08-01T12:33:06;99972.19;;;22.76;58.76
74680;BME280;63211;48.548;2.704;2023-08-01T12:35:33;99970.53;;;22.75;58.90
74680;BME280;63211;48.548;2.704;2023-08-01T12:37:59;99975.53;;;22.78;58.91
74680;BME280;63211;48.548;2.704;2023-08-01T12:40:27;99984.84;;;22.77;58.79
74680;BME280;63211;48.548;2.704;2023-08-01T12:42:54;99979.88;;;22.74;58.07
74680;BME280;63211;48.548;2.704;2023-08-01T12:45:20;99990.91;;;22.79;57.51
74680;BME280;63211;48.548;2.704;2023-08-01T12:47:48;99985.16;;;22.86;58.13
74680;BME280;63211;48.548;2.704;2023-08-01T12:50:15;99982.94;;;22.88;57.63
74680;BME280;63211;48.548;2.704;2023-08-01T12:52:42;99977.72;;;22.96;57.44
74680;BME280;63211;48.548;2.704;2023-08-01T12:55:08;99977.47;;;22.98;56.95
74680;BME280;63211;48.548;2.704;2023-08-01T12:57:36;99978.84;;;23.01;57.13
74680;BME280;63211;48.548;2.704;2023-08-01T13:00:04;99987.91;;;23.01;57.58